createdAt,value
2023-05-21T00:00:18.135Z,101758.69
2023-05-21T00:02:46.139Z,101764.06
2023-05-21T00:05:15.526Z,101757.81
2023-05-21T00:07:43.513Z,101754.69
2023-05-21T00:10:11.976Z,101744.19
2023-05-21T00:12:40.285Z,101749.31
2023-05-21T00:15:09.398Z,101746.56
2023-05-21T00:17:40.120Z,101747.00
2023-05-21T00:20:10.067Z,101747.59
2023-05-21T00:22:38.004Z,101750.19
2023-05-21T00:25:06.507Z,101741.78
2023-05-21T00:27:34.421Z,101729.03
2023-05-21T00:30:02.505Z,101727.22
2023-05-21T00:32:30.853Z,101730.91
2023-05-21T00:35:00.154Z,101725.94
2023-05-21T00:37:29.859Z,101732.34
2023-05-21T00:39:58.446Z,101727.63
2023-05-21T00:42:27.440Z,101732.16
2023-05-21T00:44:55.377Z,101730.97
2023-05-21T00:47:23.708Z,101731.34
2023-05-21T00:49:53.376Z,101726.22
2023-05-21T00:52:23.161Z,101730.97
2023-05-21T00:54:52.035Z,101725.16
2023-05-21T00:57:21.703Z,101716.97
2023-05-21T00:59:53.089Z,101723.81
2023-05-21T01:02:24.183Z,101716.75
2023-05-21T01:04:52.914Z,101724.53
2023-05-21T01:07:22.148Z,101716.28
2023-05-21T01:09:50.175Z,101720.84
2023-05-21T01:12:19.998Z,101705.75
2023-05-21T01:14:49.201Z,101711.03
2023-05-21T01:17:17.704Z,101713.59
2023-05-21T01:19:47.949Z,101713.44
2023-05-21T01:22:18.782Z,101709.47
2023-05-21T01:24:51.120Z,101713.56
2023-05-21T01:27:19.988Z,101709.47
2023-05-21T01:29:47.932Z,101710.03
2023-05-21T01:32:24.651Z,101719.03
2023-05-21T01:35:00.802Z,101715.41
2023-05-21T01:37:32.584Z,101714.13
2023-05-21T01:40:09.899Z,101714.78
2023-05-21T01:42:40.084Z,101708.63
2023-05-21T01:45:09.619Z,101711.44
2023-05-21T01:47:38.631Z,101709.78
2023-05-21T01:50:08.092Z,101702.75
2023-05-21T01:52:36.944Z,101702.09
2023-05-21T01:55:06.907Z,101700.94
2023-05-21T01:57:34.801Z,101704.09
2023-05-21T02:00:02.815Z,101695.00
2023-05-21T02:02:31.004Z,101694.41
2023-05-21T02:04:58.918Z,101693.72
2023-05-21T02:07:28.922Z,101693.53
2023-05-21T02:09:56.808Z,101687.31
2023-05-21T02:12:26.027Z,101691.09
2023-05-21T02:14:53.902Z,101691.25
2023-05-21T02:17:21.878Z,101687.81
2023-05-21T02:19:49.790Z,101689.66
2023-05-21T02:22:17.711Z,101690.13
2023-05-21T02:24:45.791Z,101683.47
2023-05-21T02:27:13.996Z,101675.88
2023-05-21T02:29:43.255Z,101677.31
2023-05-21T02:32:11.777Z,101691.56
2023-05-21T02:34:42.420Z,101682.72
2023-05-21T02:37:10.756Z,101683.69
2023-05-21T02:39:38.748Z,101679.63
2023-05-21T02:42:07.163Z,101678.16
2023-05-21T02:44:35.858Z,101683.84
2023-05-21T02:47:05.514Z,101674.44
2023-05-21T02:49:33.691Z,101678.72
2023-05-21T02:52:01.541Z,101670.31
2023-05-21T02:54:29.436Z,101682.97
2023-05-21T02:56:57.719Z,101670.47
2023-05-21T02:59:25.740Z,101667.59
2023-05-21T03:01:53.727Z,101669.28
2023-05-21T03:04:23.097Z,101657.34
2023-05-21T03:06:54.861Z,101666.19
2023-05-21T03:09:22.943Z,101660.19
2023-05-21T03:11:51.676Z,101661.31
2023-05-21T03:14:19.565Z,101662.31
2023-05-21T03:16:49.232Z,101662.44
2023-05-21T03:19:19.097Z,101661.63
2023-05-21T03:21:49.048Z,101656.78
2023-05-21T03:24:17.341Z,101660.91
2023-05-21T03:26:45.594Z,101664.47
2023-05-21T03:29:13.614Z,101666.91
2023-05-21T03:31:42.517Z,101677.66
2023-05-21T03:34:12.823Z,101658.22
2023-05-21T03:36:41.151Z,101672.00
2023-05-21T03:39:10.596Z,101667.59
2023-05-21T03:41:39.363Z,101674.16
2023-05-21T03:44:11.441Z,101666.47
2023-05-21T03:46:54.118Z,101681.09
2023-05-21T03:49:30.503Z,101672.19
2023-05-21T03:51:59.578Z,101667.91
2023-05-21T03:54:29.681Z,101669.59
2023-05-21T03:57:02.441Z,101665.34
2023-05-21T03:59:30.367Z,101664.47
2023-05-21T04:01:59.482Z,101669.03
2023-05-21T04:04:29.439Z,101667.91
2023-05-21T04:06:57.752Z,101670.00
2023-05-21T04:09:25.637Z,101668.19
2023-05-21T04:11:55.032Z,101676.00
2023-05-21T04:14:23.430Z,101671.91
2023-05-21T04:16:53.334Z,101680.97
2023-05-21T04:19:22.396Z,101674.75
2023-05-21T04:21:50.934Z,101681.56
2023-05-21T04:24:19.721Z,101685.03
2023-05-21T04:27:01.634Z,101684.31
2023-05-21T04:29:31.756Z,101682.88
2023-05-21T04:31:59.714Z,101690.25
2023-05-21T04:34:27.579Z,101692.69
2023-05-21T04:36:56.953Z,101685.00
2023-05-21T04:39:26.013Z,101679.97
2023-05-21T04:41:54.770Z,101693.53
2023-05-21T04:44:24.816Z,101687.06
2023-05-21T04:46:54.854Z,101691.06
2023-05-21T04:49:23.077Z,101690.06
2023-05-21T04:51:51.120Z,101691.78
2023-05-21T04:54:19.035Z,101694.06
2023-05-21T04:56:47.407Z,101688.72
2023-05-21T04:59:15.958Z,101687.66
2023-05-21T05:01:45.395Z,101675.22
2023-05-21T05:04:13.293Z,101675.81
2023-05-21T05:06:41.540Z,101688.13
2023-05-21T05:09:09.734Z,101677.09
2023-05-21T05:11:37.842Z,101688.50
2023-05-21T05:14:06.069Z,101681.03
2023-05-21T05:16:35.730Z,101685.06
2023-05-21T05:19:05.194Z,101690.81
2023-05-21T05:21:33.239Z,101702.25
2023-05-21T05:24:01.423Z,101692.38
2023-05-21T05:26:32.822Z,101691.09
2023-05-21T05:29:01.333Z,101684.75
2023-05-21T05:31:29.873Z,101677.41
2023-05-21T05:33:58.373Z,101671.19
2023-05-21T05:36:28.160Z,101677.94
2023-05-21T05:38:56.025Z,101677.47
2023-05-21T05:41:24.112Z,101675.31
2023-05-21T05:43:52.009Z,101678.00
2023-05-21T05:46:22.163Z,101672.53
2023-05-21T05:48:52.019Z,101679.16
2023-05-21T05:51:19.930Z,101679.22
2023-05-21T05:53:49.377Z,101675.81
2023-05-21T05:56:17.678Z,101682.75
2023-05-21T05:58:45.930Z,101672.31
2023-05-21T06:01:16.455Z,101674.41
2023-05-21T06:03:45.388Z,101670.31
2023-05-21T06:06:17.073Z,101670.66
2023-05-21T06:08:46.305Z,101674.81
2023-05-21T06:11:17.171Z,101666.50
2023-05-21T06:13:45.318Z,101675.25
2023-05-21T06:16:13.782Z,101671.03
2023-05-21T06:18:41.763Z,101668.63
2023-05-21T06:21:09.691Z,101662.88
2023-05-21T06:23:37.874Z,101660.22
2023-05-21T06:26:06.342Z,101658.09
2023-05-21T06:28:36.264Z,101647.88
2023-05-21T06:31:04.814Z,101651.16
2023-05-21T06:33:34.343Z,101662.94
2023-05-21T06:36:02.452Z,101658.28
2023-05-21T06:38:30.773Z,101659.53
2023-05-21T06:40:59.702Z,101665.88
2023-05-21T06:43:45.734Z,101664.75
2023-05-21T06:46:32.010Z,101664.03
2023-05-21T06:49:01.024Z,101651.03
2023-05-21T06:51:28.951Z,101659.78
2023-05-21T06:53:57.143Z,101660.81
2023-05-21T06:56:27.024Z,101653.56
2023-05-21T06:58:57.549Z,101653.28
2023-05-21T07:01:25.517Z,101646.94
2023-05-21T07:03:54.394Z,101647.31
2023-05-21T07:06:22.366Z,101643.38
2023-05-21T07:08:50.678Z,101638.81
2023-05-21T07:11:18.603Z,101646.59
2023-05-21T07:13:47.032Z,101660.44
2023-05-21T07:16:17.866Z,101654.00
2023-05-21T07:18:46.826Z,101644.03
2023-05-21T07:21:14.902Z,101646.34
2023-05-21T07:23:42.921Z,101645.59
2023-05-21T07:26:11.437Z,101635.88
2023-05-21T07:28:39.346Z,101635.41
2023-05-21T07:31:08.360Z,101634.38
2023-05-21T07:33:42.978Z,101639.50
2023-05-21T07:36:12.784Z,101637.97
2023-05-21T07:38:41.401Z,101631.88
2023-05-21T07:41:10.610Z,101624.75
2023-05-21T07:43:40.095Z,101623.50
2023-05-21T07:46:08.210Z,101623.28
2023-05-21T07:48:36.261Z,101629.06
2023-05-21T07:51:07.323Z,101627.00
2023-05-21T07:53:35.724Z,101621.59
2023-05-21T07:56:08.092Z,101625.91
2023-05-21T07:58:36.196Z,101626.34
2023-05-21T08:01:04.255Z,101625.13
2023-05-21T08:03:33.827Z,101625.91
2023-05-21T08:06:01.948Z,101620.41
2023-05-21T08:08:31.383Z,101616.88
2023-05-21T08:10:59.670Z,101615.53
2023-05-21T08:13:29.272Z,101613.47
2023-05-21T08:15:57.840Z,101610.38
2023-05-21T08:18:27.342Z,101615.31
2023-05-21T08:20:57.349Z,101610.06
2023-05-21T08:23:27.178Z,101613.63
2023-05-21T08:25:58.570Z,101607.69
2023-05-21T08:28:27.581Z,101609.56
2023-05-21T08:30:56.374Z,101606.03
2023-05-21T08:33:25.731Z,101609.78
2023-05-21T08:35:53.583Z,101602.88
2023-05-21T08:38:30.469Z,101596.94
2023-05-21T08:41:00.360Z,101601.53
2023-05-21T08:43:29.469Z,101611.50
2023-05-21T08:46:01.552Z,101599.38
2023-05-21T08:48:33.594Z,101605.13
2023-05-21T08:51:01.982Z,101603.59
2023-05-21T08:53:34.479Z,101602.28
2023-05-21T08:56:07.905Z,101604.28
2023-05-21T08:58:50.144Z,101594.91
2023-05-21T09:01:22.394Z,101590.03
2023-05-21T09:04:04.840Z,101601.06
2023-05-21T09:06:41.811Z,101593.44
2023-05-21T09:09:18.736Z,101590.44
2023-05-21T09:11:51.357Z,101583.41
2023-05-21T09:14:20.792Z,101588.59
2023-05-21T09:17:08.939Z,101584.84
2023-05-21T09:19:37.053Z,101581.59
2023-05-21T09:22:05.510Z,101577.72
2023-05-21T09:24:36.333Z,101586.94
2023-05-21T09:27:08.518Z,101590.72
2023-05-21T09:29:36.987Z,101584.75
2023-05-21T09:32:08.359Z,101575.81
2023-05-21T09:34:40.015Z,101580.38
2023-05-21T09:37:19.911Z,101571.06
2023-05-21T09:39:54.571Z,101581.84
2023-05-21T09:42:23.961Z,101575.94
2023-05-21T09:44:53.102Z,101575.91
2023-05-21T09:47:22.399Z,101577.38
2023-05-21T09:49:50.979Z,101570.25
2023-05-21T09:52:25.245Z,101574.81
2023-05-21T09:54:54.094Z,101568.75
2023-05-21T09:57:27.186Z,101570.66
2023-05-21T09:59:55.241Z,101569.81
2023-05-21T10:02:24.641Z,101580.59
2023-05-21T10:04:54.374Z,101575.28
2023-05-21T10:07:25.933Z,101561.13
2023-05-21T10:09:55.221Z,101559.00
2023-05-21T10:12:24.573Z,101559.06
2023-05-21T10:15:01.301Z,101544.19
2023-05-21T10:17:29.666Z,101557.97
2023-05-21T10:19:58.068Z,101549.22
2023-05-21T10:22:26.432Z,101550.38
2023-05-21T10:24:54.871Z,101548.09
2023-05-21T10:27:24.070Z,101526.28
2023-05-21T10:29:58.073Z,101545.31
2023-05-21T10:32:27.989Z,101537.19
2023-05-21T10:34:56.104Z,101533.19
2023-05-21T10:37:26.619Z,101527.59
2023-05-21T10:39:55.231Z,101538.47
2023-05-21T10:42:44.840Z,101550.00
2023-05-21T10:45:18.252Z,101524.38
2023-05-21T10:48:07.869Z,101517.44
2023-05-21T10:50:51.281Z,101529.53
2023-05-21T10:53:26.316Z,101525.28
2023-05-21T10:56:09.385Z,101530.44
2023-05-21T10:59:01.814Z,101527.97
2023-05-21T11:01:35.622Z,101532.78
2023-05-21T11:04:05.137Z,101524.31
2023-05-21T11:06:36.471Z,101513.34
2023-05-21T11:09:14.186Z,101519.06
2023-05-21T11:11:44.011Z,101514.47
2023-05-21T11:14:31.540Z,101519.88
2023-05-21T11:17:01.885Z,101535.81
2023-05-21T11:19:38.150Z,101523.00
2023-05-21T11:22:11.679Z,101513.97
2023-05-21T11:24:41.728Z,101518.56
2023-05-21T11:27:09.794Z,101508.88
2023-05-21T11:29:42.616Z,101512.53
2023-05-21T11:32:13.504Z,101509.13
2023-05-21T11:34:43.580Z,101515.97
2023-05-21T11:37:27.641Z,101498.72
2023-05-21T11:39:56.169Z,101498.56
2023-05-21T11:42:42.525Z,101506.03
2023-05-21T11:45:11.228Z,101503.47
2023-05-21T11:47:41.534Z,101495.69
2023-05-21T11:50:14.703Z,101499.56
2023-05-21T11:52:42.801Z,101514.91
2023-05-21T11:55:11.338Z,101499.38
2023-05-21T11:57:44.268Z,101496.34
2023-05-21T12:00:17.004Z,101488.41
2023-05-21T12:02:52.322Z,101489.25
2023-05-21T12:05:20.592Z,101496.03
2023-05-21T12:07:50.457Z,101491.09
2023-05-21T12:10:22.534Z,101483.13
2023-05-21T12:12:56.480Z,101496.50
2023-05-21T12:15:26.417Z,101485.00
2023-05-21T12:17:56.978Z,101498.31
2023-05-21T12:20:28.131Z,101482.06
2023-05-21T12:22:57.782Z,101488.84
2023-05-21T12:25:25.912Z,101477.31
2023-05-21T12:27:58.500Z,101484.25
2023-05-21T12:30:27.124Z,101476.13
2023-05-21T12:32:59.462Z,101477.03
2023-05-21T12:35:27.721Z,101482.41
2023-05-21T12:37:55.835Z,101478.63
2023-05-21T12:40:35.362Z,101487.28
2023-05-21T12:43:03.612Z,101486.84
2023-05-21T12:45:32.389Z,101475.25
2023-05-21T12:48:04.089Z,101474.13
2023-05-21T12:50:33.671Z,101479.47
2023-05-21T12:53:01.735Z,101475.66
2023-05-21T12:55:30.222Z,101470.41
2023-05-21T12:58:03.316Z,101465.91
2023-05-21T13:00:31.470Z,101470.59
2023-05-21T13:03:00.880Z,101489.28
2023-05-21T13:05:30.155Z,101467.34
2023-05-21T13:07:58.009Z,101485.88
2023-05-21T13:10:25.936Z,101473.78
2023-05-21T13:12:53.782Z,101486.72
2023-05-21T13:15:21.791Z,101472.81
2023-05-21T13:17:50.898Z,101470.91
2023-05-21T13:20:33.872Z,101468.13
2023-05-21T13:23:05.672Z,101470.84
2023-05-21T13:25:34.647Z,101469.06
2023-05-21T13:28:04.545Z,101465.59
2023-05-21T13:30:33.266Z,101479.00
2023-05-21T13:33:01.502Z,101462.78
2023-05-21T13:35:30.359Z,101465.88
2023-05-21T13:37:58.187Z,101449.34
2023-05-21T13:40:28.027Z,101459.75
2023-05-21T13:42:56.130Z,101452.81
2023-05-21T13:45:28.948Z,101463.56
2023-05-21T13:47:57.302Z,101459.16
2023-05-21T13:50:25.809Z,101455.34
2023-05-21T13:52:53.726Z,101449.41
2023-05-21T13:55:21.584Z,101450.84
2023-05-21T13:57:50.982Z,101460.13
2023-05-21T14:00:18.919Z,101451.75
2023-05-21T14:02:47.083Z,101438.38
2023-05-21T14:05:15.126Z,101442.63
2023-05-21T14:07:43.257Z,101452.72
2023-05-21T14:10:12.079Z,101450.66
2023-05-21T14:12:40.697Z,101446.81
2023-05-21T14:15:11.025Z,101436.47
2023-05-21T14:17:40.202Z,101438.16
2023-05-21T14:20:09.804Z,101450.34
2023-05-21T14:22:37.852Z,101455.34
2023-05-21T14:25:06.400Z,101449.47
2023-05-21T14:27:34.509Z,101442.44
2023-05-21T14:30:02.521Z,101444.97
2023-05-21T14:32:32.098Z,101447.31
2023-05-21T14:35:00.423Z,101436.09
2023-05-21T14:37:28.290Z,101438.19
2023-05-21T14:39:56.180Z,101439.78
2023-05-21T14:42:24.072Z,101443.81
2023-05-21T14:44:52.537Z,101445.78
2023-05-21T14:47:20.486Z,101451.50
2023-05-21T14:49:51.604Z,101448.94
2023-05-21T14:52:19.681Z,101443.97
2023-05-21T14:54:47.565Z,101447.78
2023-05-21T14:57:15.559Z,101454.59
2023-05-21T14:59:43.542Z,101447.63
2023-05-21T15:02:11.508Z,101450.53
2023-05-21T15:04:40.007Z,101446.88
2023-05-21T15:07:09.231Z,101434.81
2023-05-21T15:09:37.121Z,101436.91
2023-05-21T15:12:05.430Z,101445.19
2023-05-21T15:14:33.334Z,101437.13
2023-05-21T15:17:01.234Z,101430.34
2023-05-21T15:19:29.191Z,101433.41
2023-05-21T15:21:57.151Z,101425.41
2023-05-21T15:24:26.460Z,101426.47
2023-05-21T15:26:54.361Z,101423.94
2023-05-21T15:29:22.334Z,101434.97
2023-05-21T15:31:50.284Z,101440.13
2023-05-21T15:34:18.440Z,101433.03
2023-05-21T15:36:46.388Z,101431.38
2023-05-21T15:39:14.296Z,101443.75
2023-05-21T15:41:43.546Z,101432.28
2023-05-21T15:44:11.524Z,101434.88
2023-05-21T15:46:39.454Z,101429.38
2023-05-21T15:49:08.613Z,101429.16
2023-05-21T15:51:36.489Z,101431.91
2023-05-21T15:54:04.661Z,101432.16
2023-05-21T15:56:32.545Z,101433.03
2023-05-21T15:59:01.842Z,101424.53
2023-05-21T16:01:29.991Z,101429.75
2023-05-21T16:03:58.041Z,101429.31
2023-05-21T16:06:26.171Z,101425.72
2023-05-21T16:08:54.064Z,101420.44
2023-05-21T16:11:22.458Z,101425.09
2023-05-21T16:13:50.498Z,101416.22
2023-05-21T16:16:21.271Z,101415.94
2023-05-21T16:18:51.163Z,101409.75
2023-05-21T16:21:19.472Z,101416.50
2023-05-21T16:23:47.927Z,101416.84
2023-05-21T16:26:15.905Z,101415.41
2023-05-21T16:28:43.813Z,101410.09
2023-05-21T16:31:12.698Z,101415.72
2023-05-21T16:33:41.959Z,101398.44
2023-05-21T16:36:09.955Z,101404.84
2023-05-21T16:38:38.200Z,101406.47
2023-05-21T16:41:06.709Z,101410.84
2023-05-21T16:43:34.582Z,101415.72
2023-05-21T16:46:02.660Z,101416.13
2023-05-21T16:48:30.877Z,101410.59
2023-05-21T16:51:00.595Z,101417.81
2023-05-21T16:53:28.545Z,101415.91
2023-05-21T16:55:56.594Z,101424.81
2023-05-21T16:58:24.511Z,101418.88
2023-05-21T17:00:52.432Z,101403.88
2023-05-21T17:03:20.625Z,101423.53
2023-05-21T17:05:48.715Z,101432.50
2023-05-21T17:08:18.006Z,101413.81
2023-05-21T17:10:46.070Z,101421.84
2023-05-21T17:13:21.447Z,101433.44
2023-05-21T17:15:51.172Z,101418.03
2023-05-21T17:18:19.376Z,101432.38
2023-05-21T17:20:47.414Z,101423.44
2023-05-21T17:23:15.416Z,101426.88
2023-05-21T17:25:44.902Z,101427.31
2023-05-21T17:28:12.771Z,101433.66
2023-05-21T17:30:40.831Z,101423.09
2023-05-21T17:33:10.404Z,101428.16
2023-05-21T17:35:39.147Z,101423.28
2023-05-21T17:38:07.390Z,101422.25
2023-05-21T17:40:35.587Z,101435.13
2023-05-21T17:43:07.184Z,101427.84
2023-05-21T17:45:35.307Z,101423.19
2023-05-21T17:48:03.755Z,101419.44
2023-05-21T17:50:31.776Z,101418.00
2023-05-21T17:53:00.475Z,101421.34
2023-05-21T17:55:28.437Z,101424.25
2023-05-21T17:57:56.431Z,101423.94
2023-05-21T18:00:25.777Z,101432.28
2023-05-21T18:02:53.782Z,101432.72
2023-05-21T18:05:22.754Z,101431.88
2023-05-21T18:07:50.861Z,101443.13
2023-05-21T18:10:18.785Z,101433.28
2023-05-21T18:12:47.156Z,101443.59
2023-05-21T18:15:15.642Z,101441.97
2023-05-21T18:17:45.501Z,101450.28
2023-05-21T18:20:14.834Z,101441.66
2023-05-21T18:22:42.896Z,101445.94
2023-05-21T18:25:11.493Z,101445.97
2023-05-21T18:27:39.402Z,101441.25
2023-05-21T18:30:08.540Z,101447.19
2023-05-21T18:32:38.738Z,101443.81
2023-05-21T18:35:12.003Z,101441.34
2023-05-21T18:37:42.962Z,101446.72
2023-05-21T18:40:12.123Z,101459.72
2023-05-21T18:42:40.207Z,101452.72
2023-05-21T18:45:10.092Z,101460.53
2023-05-21T18:47:40.210Z,101464.53
2023-05-21T18:50:12.803Z,101460.78
2023-05-21T18:52:40.762Z,101457.50
2023-05-21T18:55:09.721Z,101459.22
2023-05-21T18:57:38.189Z,101457.91
2023-05-21T19:00:09.467Z,101455.34
2023-05-21T19:02:37.703Z,101463.78
2023-05-21T19:05:06.352Z,101450.03
2023-05-21T19:07:36.227Z,101464.94
2023-05-21T19:10:04.328Z,101469.69
2023-05-21T19:12:32.397Z,101467.69
2023-05-21T19:15:00.308Z,101468.13
2023-05-21T19:17:28.298Z,101475.03
2023-05-21T19:19:56.695Z,101478.75
2023-05-21T19:22:24.993Z,101473.47
2023-05-21T19:24:54.664Z,101487.03
2023-05-21T19:27:22.827Z,101490.78
2023-05-21T19:29:51.714Z,101487.94
2023-05-21T19:32:20.735Z,101498.22
2023-05-21T19:34:48.672Z,101495.25
2023-05-21T19:37:17.009Z,101491.28
2023-05-21T19:39:49.525Z,101504.19
2023-05-21T19:42:21.397Z,101502.34
2023-05-21T19:44:49.454Z,101498.00
2023-05-21T19:47:17.354Z,101494.47
2023-05-21T19:49:45.705Z,101495.97
2023-05-21T19:52:13.675Z,101499.88
2023-05-21T19:54:41.680Z,101499.47
2023-05-21T19:57:12.286Z,101500.28
2023-05-21T19:59:41.772Z,101501.59
2023-05-21T20:02:15.097Z,101503.81
2023-05-21T20:04:43.009Z,101495.00
2023-05-21T20:07:11.007Z,101502.34
2023-05-21T20:09:39.648Z,101497.53
2023-05-21T20:12:08.538Z,101498.44
2023-05-21T20:14:36.427Z,101492.88
2023-05-21T20:17:07.084Z,101496.72
2023-05-21T20:19:35.900Z,101500.56
2023-05-21T20:22:04.068Z,101510.66
2023-05-21T20:24:32.113Z,101505.06
2023-05-21T20:27:01.594Z,101509.91
2023-05-21T20:29:29.950Z,101503.47
2023-05-21T20:31:57.859Z,101493.25
2023-05-21T20:34:28.076Z,101494.31
2023-05-21T20:36:58.083Z,101507.31
2023-05-21T20:39:27.286Z,101507.63
2023-05-21T20:41:56.048Z,101508.72
2023-05-21T20:44:25.879Z,101510.81
2023-05-21T20:46:54.767Z,101510.72
2023-05-21T20:49:24.732Z,101511.38
2023-05-21T20:51:54.294Z,101514.63
2023-05-21T20:54:23.243Z,101513.84
2023-05-21T20:56:54.812Z,101521.22
2023-05-21T20:59:22.714Z,101517.94
2023-05-21T21:01:50.770Z,101520.19
2023-05-21T21:04:18.930Z,101509.81
2023-05-21T21:06:47.013Z,101515.94
2023-05-21T21:09:16.249Z,101520.59
2023-05-21T21:11:44.444Z,101519.97
2023-05-21T21:14:13.669Z,101523.66
2023-05-21T21:16:41.739Z,101515.13
2023-05-21T21:19:09.796Z,101530.44
2023-05-21T21:21:37.791Z,101523.91
2023-05-21T21:24:06.736Z,101522.28
2023-05-21T21:26:36.104Z,101528.34
2023-05-21T21:29:04.104Z,101528.44
2023-05-21T21:31:32.136Z,101529.69
2023-05-21T21:34:00.022Z,101525.41
2023-05-21T21:36:28.834Z,101533.56
2023-05-21T21:38:56.817Z,101536.03
2023-05-21T21:41:24.827Z,101532.16
2023-05-21T21:43:54.073Z,101537.22
2023-05-21T21:46:22.015Z,101531.13
2023-05-21T21:48:49.939Z,101529.63
2023-05-21T21:51:17.946Z,101528.66
2023-05-21T21:53:46.093Z,101528.97
2023-05-21T21:56:13.969Z,101533.19
2023-05-21T21:58:41.939Z,101532.34
2023-05-21T22:01:11.265Z,101533.28
2023-05-21T22:03:39.185Z,101533.88
2023-05-21T22:06:07.284Z,101530.84
2023-05-21T22:08:35.149Z,101535.91
2023-05-21T22:11:03.076Z,101532.66
2023-05-21T22:13:30.959Z,101532.50
2023-05-21T22:15:58.901Z,101537.16
2023-05-21T22:18:40.142Z,101527.72
2023-05-21T22:21:09.750Z,101528.16
2023-05-21T22:23:37.830Z,101532.66
2023-05-21T22:26:05.882Z,101523.22
2023-05-21T22:28:33.979Z,101526.13
2023-05-21T22:31:01.904Z,101528.41
2023-05-21T22:33:31.289Z,101524.41
2023-05-21T22:35:59.187Z,101528.41
2023-05-21T22:38:27.090Z,101529.34
2023-05-21T22:40:55.063Z,101531.91
2023-05-21T22:43:22.983Z,101533.69
2023-05-21T22:45:50.953Z,101528.53
2023-05-21T22:48:21.980Z,101531.63
2023-05-21T22:50:53.409Z,101526.78
2023-05-21T22:53:21.752Z,101518.72
2023-05-21T22:55:49.819Z,101527.28
2023-05-21T22:58:18.063Z,101522.53
2023-05-21T23:00:45.999Z,101536.06
2023-05-21T23:03:13.891Z,101521.75
2023-05-21T23:05:41.824Z,101517.81
2023-05-21T23:08:11.246Z,101518.44
2023-05-21T23:10:39.324Z,101526.09
2023-05-21T23:13:07.507Z,101527.63
2023-05-21T23:15:38.727Z,101534.00
2023-05-21T23:18:07.726Z,101525.81
2023-05-21T23:20:36.690Z,101524.66
2023-05-21T23:23:04.982Z,101533.09
2023-05-21T23:25:35.046Z,101529.00
2023-05-21T23:28:02.983Z,101524.50
2023-05-21T23:30:30.979Z,101518.75
2023-05-21T23:32:58.954Z,101523.75
2023-05-21T23:35:27.065Z,101522.63
2023-05-21T23:37:55.018Z,101513.66
2023-05-21T23:40:22.906Z,101520.59
2023-05-21T23:42:52.388Z,101516.06
2023-05-21T23:45:20.358Z,101515.75
2023-05-21T23:47:48.298Z,101507.56
2023-05-21T23:50:16.468Z,101511.22
2023-05-21T23:52:44.704Z,101511.47
2023-05-21T23:55:14.717Z,101504.09
2023-05-21T23:57:42.787Z,101508.53
